Terminal Aerodrome Forecast
Issued by NWS

Home | Current Version | Previous Version | Text Only | Print | Product List | Glossary On
Versions: 1 2 3 4 5 6 7 8 9 10 11 12 13 14 15 16 17 18
576
FTUS43 KICT 241137
TAFRSL
TAF
KRSL 241137Z 2412/2512 13012KT P6SM -SHRA VCTS SCT015 OVC035CB
     FM241500 16017G24KT P6SM BKN035
     FM241700 14011KT P6SM BKN035
     FM242100 14011KT P6SM VCTS BKN045CB
     FM250000 15014KT P6SM -SHRA VCTS SCT035 BKN070CB
     FM250400 15015KT P6SM VCSH BKN035=

USA.gov is the U.S. government's official web portal to all federal, state and local government web resources and services.